LFLLLFKJ

Guest
Details From LFLL - Lyon Saint Exupery
To LFKJ - Campo Dell Oro
Flight Number -
Tags Generated
Created
Modified
Stats Distance 280 nm / 518 km
Max Altitude 0 ft / 0 m
Waypoints 3
Social Downloads 2
Likes 0
Share VATSIM

Download

Looking for another format? Having issues loading an existing format? Contact us
Advertisement - Login to hide

Notes

Generated

Route

LFLL BEBEV LFKJ

ID Type Via Altitude Latitude Longitude Leg Dist Tot Dist Heading (true) Name
O LFLL APT - 0 ft / 0 m 45.73499˚ 5.09188˚ - 0 nm - Lyon Saint Exupery
BEBEV FIX - 0 ft / 0 m 42.21694˚ 8.44556˚ 256 nm 256 nm 144° / 147° -
O LFKJ APT - 0 ft / 0 m 41.92445˚ 8.79174˚ 23 nm 279 nm 139° / 139° -

Altitude Profile

Advertisement - Login to hide

Weather


0- 5 10 15 20 25 30 35+ Temperature / ° C

Clouds and Precipitation
Forecast for 2018-05-27 06:00 UTC. Updated 3 hours ago

Ground ~20,000 ft ~40,000 ft Winds

LFLL

Details ICAO LFLL (LYS)
Name Lyon Saint Exupery
Region France
Timezone Europe/Paris (UTC+2.0)
Stats Elevation 820 ft / 250 m (AMSL)
Location 45.725812° 5.090748°
Runways 2
Magnetic Variation 1.542° E

METAR

LFLL 270800Z 04004KT 9999 FEW040 BKN110 20/16 Q1017 NOSIG

Decode

TAF

TAF LFLL 270500Z 2706/2812 VRB03KT CAVOK TEMPO 2706/2812 -TSRA BKN120CB

Decode

Departure Runways

ID Width Length Bearing (true) Bearing (mag) Surface Threshold Offset Overrun Length
18L 148 ft / 45 m 8,798 ft / 2,682 m 175.13° 173.59° Asphalt 33 ft / 10 m 52 ft / 16 m
18R 148 ft / 45 m 13,149 ft / 4,008 m 175.14° 173.60° Asphalt 16 ft / 5 m 203 ft / 62 m
36L 148 ft / 45 m 13,149 ft / 4,008 m 355.15° 353.61° Asphalt 36 ft / 11 m 151 ft / 46 m
36R 148 ft / 45 m 8,798 ft / 2,682 m 355.13° 353.59° Asphalt 26 ft / 8 m 52 ft / 16 m

LFKJ

Details ICAO LFKJ (AJA)
Name Napoleon Bonaparte
Region France
Timezone Europe/Paris (UTC+2.0)
Stats Elevation 18 ft / 5 m (AMSL)
Location 41.922886° 8.799587°
Runways 2
Magnetic Variation 2.377° E

METAR

LFKJ 270800Z AUTO VRB02KT CAVOK 25/14 Q1015 NOSIG

Decode

TAF

TAF LFKJ 270200Z 2703/2803 06006KT CAVOK TEMPO 2710/2716 27010KT

Decode

Destination Runways

ID Width Length Bearing (true) Bearing (mag) Surface Threshold Offset Overrun Length
02 180 ft / 55 m 7,899 ft / 2,408 m 24.94° 22.56° Asphalt 0 ft / 0 m 164 ft / 50 m
10 98 ft / 30 m 3,447 ft / 1,051 m 94.35° 91.97° Concrete 0 ft / 0 m 164 ft / 50 m
20 180 ft / 55 m 7,899 ft / 2,408 m 204.95° 202.57° Asphalt 745 ft / 227 m 230 ft / 70 m
28 98 ft / 30 m 3,447 ft / 1,051 m 274.36° 271.98° Concrete 213 ft / 65 m 0 ft / 0 m

Approach Navaids

Runway Type Ident Frequency Range Bearing (true) Bearing (mag) Slope Elevation
02 Localiser AC 110.30 MHz 27 nm / 50 km 24.92° 22.54° - 18 ft / 5 m (AMSL)
02 Glidescope AC 110.30 MHz 27 nm / 50 km 24.92° 22.54° 3.00° 18 ft / 5 m (AMSL)
02 DME AC 110.30 MHz 27 nm / 50 km - - - 18 ft / 5 m (AMSL)

Popular Alternatives